sensor_id;sensor_type;location;lat;lon;timestamp;temperature;humidity
546;DHT22;259;53.304;9.816;2023-07-29T00:00:43;20.00;98.10
546;DHT22;259;53.304;9.816;2023-07-29T00:03:09;19.90;98.10
546;DHT22;259;53.304;9.816;2023-07-29T00:05:36;20.00;98.20
546;DHT22;259;53.304;9.816;2023-07-29T00:08:02;19.90;98.10
546;DHT22;259;53.304;9.816;2023-07-29T00:10:30;19.90;98.20
546;DHT22;259;53.304;9.816;2023-07-29T00:12:57;19.90;98.20
546;DHT22;259;53.304;9.816;2023-07-29T00:15:22;19.90;98.30
546;DHT22;259;53.304;9.816;2023-07-29T00:17:48;19.90;98.40
546;DHT22;259;53.304;9.816;2023-07-29T00:20:14;19.90;98.40
546;DHT22;259;53.304;9.816;2023-07-29T00:22:40;19.90;98.40
546;DHT22;259;53.304;9.816;2023-07-29T00:25:06;19.90;98.40
546;DHT22;259;53.304;9.816;2023-07-29T00:27:32;19.90;98.30
546;DHT22;259;53.304;9.816;2023-07-29T00:29:58;19.90;98.30
546;DHT22;259;53.304;9.816;2023-07-29T00:32:24;19.90;98.30
546;DHT22;259;53.304;9.816;2023-07-29T00:34:49;19.90;98.30
546;DHT22;259;53.304;9.816;2023-07-29T00:37:15;19.90;98.30
546;DHT22;259;53.304;9.816;2023-07-29T00:39:40;19.90;98.30
546;DHT22;259;53.304;9.816;2023-07-29T00:42:06;19.90;98.30
546;DHT22;259;53.304;9.816;2023-07-29T00:44:32;19.90;98.30
546;DHT22;259;53.304;9.816;2023-07-29T00:46:59;19.90;98.30
546;DHT22;259;53.304;9.816;2023-07-29T00:49:26;19.90;98.30
546;DHT22;259;53.304;9.816;2023-07-29T00:51:52;19.90;98.30
546;DHT22;259;53.304;9.816;2023-07-29T00:54:17;19.90;98.30
546;DHT22;259;53.304;9.816;2023-07-29T00:56:43;19.90;98.30
546;DHT22;259;53.304;9.816;2023-07-29T00:59:09;19.90;98.30
546;DHT22;259;53.304;9.816;2023-07-29T01:01:35;19.80;98.30
546;DHT22;259;53.304;9.816;2023-07-29T01:04:01;19.80;98.30
546;DHT22;259;53.304;9.816;2023-07-29T01:06:45;19.80;98.30
546;DHT22;259;53.304;9.816;2023-07-29T01:09:30;19.80;98.30
546;DHT22;259;53.304;9.816;2023-07-29T01:12:08;19.80;98.30
546;DHT22;259;53.304;9.816;2023-07-29T01:14:51;19.80;98.30
546;DHT22;259;53.304;9.816;2023-07-29T01:17:23;19.80;98.40
546;DHT22;259;53.304;9.816;2023-07-29T01:20:08;19.80;98.40
546;DHT22;259;53.304;9.816;2023-07-29T01:22:36;19.80;98.40
546;DHT22;259;53.304;9.816;2023-07-29T01:25:03;19.80;98.40
546;DHT22;259;53.304;9.816;2023-07-29T01:27:29;19.80;98.40
546;DHT22;259;53.304;9.816;2023-07-29T01:29:57;19.80;98.40
546;DHT22;259;53.304;9.816;2023-07-29T01:38:28;19.80;98.50
546;DHT22;259;53.304;9.816;2023-07-29T01:41:01;19.80;98.50
546;DHT22;259;53.304;9.816;2023-07-29T01:43:31;19.70;98.50
546;DHT22;259;53.304;9.816;2023-07-29T01:45:58;19.80;99.00
546;DHT22;259;53.304;9.816;2023-07-29T01:48:24;19.80;98.70
546;DHT22;259;53.304;9.816;2023-07-29T01:50:50;19.80;98.80
546;DHT22;259;53.304;9.816;2023-07-29T01:53:16;19.80;98.70
546;DHT22;259;53.304;9.816;2023-07-29T01:55:42;19.80;98.80
546;DHT22;259;53.304;9.816;2023-07-29T01:58:10;19.80;98.70
546;DHT22;259;53.304;9.816;2023-07-29T02:00:35;19.80;98.70
546;DHT22;259;53.304;9.816;2023-07-29T02:03:01;19.80;98.70
546;DHT22;259;53.304;9.816;2023-07-29T02:05:27;19.80;98.70
546;DHT22;259;53.304;9.816;2023-07-29T02:07:52;19.70;98.60
546;DHT22;259;53.304;9.816;2023-07-29T02:10:18;19.70;98.60
546;DHT22;259;53.304;9.816;2023-07-29T02:12:44;19.70;98.50
546;DHT22;259;53.304;9.816;2023-07-29T02:15:09;19.70;98.50
546;DHT22;259;53.304;9.816;2023-07-29T02:17:36;19.70;98.50
546;DHT22;259;53.304;9.816;2023-07-29T02:20:03;19.70;98.50
546;DHT22;259;53.304;9.816;2023-07-29T02:22:29;19.70;98.50
546;DHT22;259;53.304;9.816;2023-07-29T02:24:55;19.70;98.50
546;DHT22;259;53.304;9.816;2023-07-29T02:27:21;19.70;98.50
546;DHT22;259;53.304;9.816;2023-07-29T02:29:46;19.70;98.50
546;DHT22;259;53.304;9.816;2023-07-29T02:32:12;19.70;98.50
546;DHT22;259;53.304;9.816;2023-07-29T02:34:38;19.70;98.50
546;DHT22;259;53.304;9.816;2023-07-29T02:37:03;19.70;98.50
546;DHT22;259;53.304;9.816;2023-07-29T02:39:30;19.70;98.50
546;DHT22;259;53.304;9.816;2023-07-29T02:41:56;19.70;98.50
546;DHT22;259;53.304;9.816;2023-07-29T02:44:23;19.70;98.60
546;DHT22;259;53.304;9.816;2023-07-29T02:46:50;19.70;98.60
546;DHT22;259;53.304;9.816;2023-07-29T02:49:17;19.70;98.50
546;DHT22;259;53.304;9.816;2023-07-29T02:51:43;19.70;98.60
546;DHT22;259;53.304;9.816;2023-07-29T02:54:09;19.70;98.50
546;DHT22;259;53.304;9.816;2023-07-29T02:56:34;19.70;98.60
546;DHT22;259;53.304;9.816;2023-07-29T02:59:00;19.70;98.60
546;DHT22;259;53.304;9.816;2023-07-29T03:01:26;19.70;98.60
546;DHT22;259;53.304;9.816;2023-07-29T03:03:52;19.70;98.60
546;DHT22;259;53.304;9.816;2023-07-29T03:06:18;19.60;98.60
546;DHT22;259;53.304;9.816;2023-07-29T03:08:44;19.60;98.60
546;DHT22;259;53.304;9.816;2023-07-29T03:11:13;19.60;98.70
546;DHT22;259;53.304;9.816;2023-07-29T03:13:40;19.60;98.80
546;DHT22;259;53.304;9.816;2023-07-29T03:16:07;19.60;98.80
546;DHT22;259;53.304;9.816;2023-07-29T03:18:34;19.60;98.80
546;DHT22;259;53.304;9.816;2023-07-29T03:21:00;19.60;98.90
546;DHT22;259;53.304;9.816;2023-07-29T03:23:27;19.70;99.00
546;DHT22;259;53.304;9.816;2023-07-29T03:25:55;19.60;99.00
546;DHT22;259;53.304;9.816;2023-07-29T03:28:25;19.70;99.00
546;DHT22;259;53.304;9.816;2023-07-29T03:30:51;19.60;99.00
546;DHT22;259;53.304;9.816;2023-07-29T03:33:17;19.60;99.10
546;DHT22;259;53.304;9.816;2023-07-29T03:35:42;19.60;99.10
546;DHT22;259;53.304;9.816;2023-07-29T03:38:10;19.60;99.10
546;DHT22;259;53.304;9.816;2023-07-29T03:40:40;19.60;99.10
546;DHT22;259;53.304;9.816;2023-07-29T03:43:06;19.60;99.10
546;DHT22;259;53.304;9.816;2023-07-29T03:45:32;19.60;99.10
546;DHT22;259;53.304;9.816;2023-07-29T03:47:58;19.60;99.10
546;DHT22;259;53.304;9.816;2023-07-29T03:50:24;19.60;99.10
546;DHT22;259;53.304;9.816;2023-07-29T03:52:50;19.60;99.10
546;DHT22;259;53.304;9.816;2023-07-29T03:55:16;19.60;99.10
546;DHT22;259;53.304;9.816;2023-07-29T03:57:42;19.60;99.40
546;DHT22;259;53.304;9.816;2023-07-29T04:00:08;19.60;99.00
546;DHT22;259;53.304;9.816;2023-07-29T04:02:34;19.60;99.10
546;DHT22;259;53.304;9.816;2023-07-29T04:05:03;19.60;99.00
546;DHT22;259;53.304;9.816;2023-07-29T04:07:29;19.60;99.00
546;DHT22;259;53.304;9.816;2023-07-29T04:09:55;19.60;99.10
546;DHT22;259;53.304;9.816;2023-07-29T04:12:22;19.60;99.00
546;DHT22;259;53.304;9.816;2023-07-29T04:14:48;19.60;99.10
546;DHT22;259;53.304;9.816;2023-07-29T04:17:14;19.50;99.00
546;DHT22;259;53.304;9.816;2023-07-29T04:19:39;19.60;99.10
546;DHT22;259;53.304;9.816;2023-07-29T04:22:05;19.60;99.10
546;DHT22;259;53.304;9.816;2023-07-29T04:24:31;19.50;99.00
546;DHT22;259;53.304;9.816;2023-07-29T04:26:57;19.50;99.20
546;DHT22;259;53.304;9.816;2023-07-29T04:29:22;19.60;99.10
546;DHT22;259;53.304;9.816;2023-07-29T04:31:49;19.50;99.00
546;DHT22;259;53.304;9.816;2023-07-29T04:34:16;19.50;99.10
546;DHT22;259;53.304;9.816;2023-07-29T04:36:43;19.60;99.10
546;DHT22;259;53.304;9.816;2023-07-29T04:39:09;19.50;99.00
546;DHT22;259;53.304;9.816;2023-07-29T04:41:34;19.50;99.10
546;DHT22;259;53.304;9.816;2023-07-29T04:44:00;19.50;99.10
546;DHT22;259;53.304;9.816;2023-07-29T04:46:26;19.50;99.20
546;DHT22;259;53.304;9.816;2023-07-29T04:48:51;19.50;99.20
546;DHT22;259;53.304;9.816;2023-07-29T04:51:17;19.60;99.30
546;DHT22;259;53.304;9.816;2023-07-29T04:53:43;19.50;99.30
546;DHT22;259;53.304;9.816;2023-07-29T04:56:08;19.50;99.30
546;DHT22;259;53.304;9.816;2023-07-29T04:58:37;19.50;99.30
546;DHT22;259;53.304;9.816;2023-07-29T05:01:03;19.60;99.30
546;DHT22;259;53.304;9.816;2023-07-29T05:03:29;19.50;99.30
546;DHT22;259;53.304;9.816;2023-07-29T05:05:56;19.50;99.30
546;DHT22;259;53.304;9.816;2023-07-29T05:08:22;19.50;99.30
546;DHT22;259;53.304;9.816;2023-07-29T05:10:52;19.50;99.30
546;DHT22;259;53.304;9.816;2023-07-29T05:13:19;19.50;99.30
546;DHT22;259;53.304;9.816;2023-07-29T05:15:46;19.50;99.30
546;DHT22;259;53.304;9.816;2023-07-29T05:18:12;19.50;99.30
546;DHT22;259;53.304;9.816;2023-07-29T05:20:38;19.50;99.30
546;DHT22;259;53.304;9.816;2023-07-29T05:23:04;19.50;99.30
546;DHT22;259;53.304;9.816;2023-07-29T05:25:29;19.50;99.40
546;DHT22;259;53.304;9.816;2023-07-29T05:27:55;19.50;99.40
546;DHT22;259;53.304;9.816;2023-07-29T05:30:20;19.50;99.40
546;DHT22;259;53.304;9.816;2023-07-29T05:32:46;19.50;99.40
546;DHT22;259;53.304;9.816;2023-07-29T05:35:12;19.50;99.40
546;DHT22;259;53.304;9.816;2023-07-29T05:37:38;19.50;99.40
546;DHT22;259;53.304;9.816;2023-07-29T05:40:05;19.60;99.40
546;DHT22;259;53.304;9.816;2023-07-29T05:42:32;19.50;99.40
546;DHT22;259;53.304;9.816;2023-07-29T05:44:58;19.50;99.30
546;DHT22;259;53.304;9.816;2023-07-29T05:47:24;19.50;99.40
546;DHT22;259;53.304;9.816;2023-07-29T05:49:49;19.50;99.40
546;DHT22;259;53.304;9.816;2023-07-29T05:52:16;19.60;99.50
546;DHT22;259;53.304;9.816;2023-07-29T05:54:41;19.50;99.40
546;DHT22;259;53.304;9.816;2023-07-29T05:57:09;19.50;99.40
546;DHT22;259;53.304;9.816;2023-07-29T05:59:35;19.50;99.40
546;DHT22;259;53.304;9.816;2023-07-29T06:02:01;19.50;99.40
546;DHT22;259;53.304;9.816;2023-07-29T06:04:26;19.60;99.50
546;DHT22;259;53.304;9.816;2023-07-29T06:06:52;19.50;99.40
546;DHT22;259;53.304;9.816;2023-07-29T06:09:18;19.60;99.40
546;DHT22;259;53.304;9.816;2023-07-29T06:11:43;19.50;99.40
546;DHT22;259;53.304;9.816;2023-07-29T06:14:09;19.50;99.40
546;DHT22;259;53.304;9.816;2023-07-29T06:16:35;19.50;99.40
546;DHT22;259;53.304;9.816;2023-07-29T06:19:00;19.50;99.40
546;DHT22;259;53.304;9.816;2023-07-29T06:21:26;19.60;99.40
546;DHT22;259;53.304;9.816;2023-07-29T06:23:52;19.60;99.40
546;DHT22;259;53.304;9.816;2023-07-29T06:26:18;19.60;99.40
546;DHT22;259;53.304;9.816;2023-07-29T06:28:44;19.60;99.80
546;DHT22;259;53.304;9.816;2023-07-29T06:31:09;19.60;99.40
546;DHT22;259;53.304;9.816;2023-07-29T06:33:35;19.60;99.40
546;DHT22;259;53.304;9.816;2023-07-29T06:36:01;19.60;99.40
546;DHT22;259;53.304;9.816;2023-07-29T06:38:27;19.60;99.40
546;DHT22;259;53.304;9.816;2023-07-29T06:40:52;19.60;99.40
546;DHT22;259;53.304;9.816;2023-07-29T06:43:18;19.60;99.40
546;DHT22;259;53.304;9.816;2023-07-29T06:45:44;19.60;99.40
546;DHT22;259;53.304;9.816;2023-07-29T06:48:10;19.60;99.40
546;DHT22;259;53.304;9.816;2023-07-29T06:50:35;19.60;99.40
546;DHT22;259;53.304;9.816;2023-07-29T06:53:01;19.60;99.40
546;DHT22;259;53.304;9.816;2023-07-29T06:55:27;19.60;99.40
546;DHT22;259;53.304;9.816;2023-07-29T06:57:52;19.60;99.40
546;DHT22;259;53.304;9.816;2023-07-29T07:00:18;19.60;99.40
546;DHT22;259;53.304;9.816;2023-07-29T07:02:44;19.60;99.40
546;DHT22;259;53.304;9.816;2023-07-29T07:05:09;19.60;99.40
546;DHT22;259;53.304;9.816;2023-07-29T07:07:35;19.60;99.30
546;DHT22;259;53.304;9.816;2023-07-29T07:10:01;19.60;99.40
546;DHT22;259;53.304;9.816;2023-07-29T07:12:26;19.60;99.40
546;DHT22;259;53.304;9.816;2023-07-29T07:14:52;19.60;99.30
546;DHT22;259;53.304;9.816;2023-07-29T07:17:18;19.60;99.30
546;DHT22;259;53.304;9.816;2023-07-29T07:19:44;19.60;99.40
546;DHT22;259;53.304;9.816;2023-07-29T07:22:09;19.60;99.30
546;DHT22;259;53.304;9.816;2023-07-29T07:24:35;19.60;99.40
546;DHT22;259;53.304;9.816;2023-07-29T07:27:02;19.60;99.40
546;DHT22;259;53.304;9.816;2023-07-29T07:29:28;19.60;99.40
546;DHT22;259;53.304;9.816;2023-07-29T07:31:56;19.60;99.40
546;DHT22;259;53.304;9.816;2023-07-29T07:34:21;19.60;99.40
546;DHT22;259;53.304;9.816;2023-07-29T07:36:47;19.60;99.40
546;DHT22;259;53.304;9.816;2023-07-29T07:39:13;19.60;99.40
546;DHT22;259;53.304;9.816;2023-07-29T07:41:40;19.60;99.40
546;DHT22;259;53.304;9.816;2023-07-29T07:44:06;19.60;99.40
546;DHT22;259;53.304;9.816;2023-07-29T07:46:32;19.60;99.40
546;DHT22;259;53.304;9.816;2023-07-29T07:48:57;19.60;99.40
546;DHT22;259;53.304;9.816;2023-07-29T07:51:23;19.60;99.40
546;DHT22;259;53.304;9.816;2023-07-29T07:53:49;19.60;99.40
546;DHT22;259;53.304;9.816;2023-07-29T07:56:14;19.60;99.50
546;DHT22;259;53.304;9.816;2023-07-29T07:58:40;19.60;99.50
546;DHT22;259;53.304;9.816;2023-07-29T08:01:07;19.60;99.50
546;DHT22;259;53.304;9.816;2023-07-29T08:03:34;19.60;99.50
546;DHT22;259;53.304;9.816;2023-07-29T08:06:00;19.60;99.50
546;DHT22;259;53.304;9.816;2023-07-29T08:08:27;19.60;99.50
546;DHT22;259;53.304;9.816;2023-07-29T08:10:54;19.60;99.40
546;DHT22;259;53.304;9.816;2023-07-29T08:13:23;19.60;99.40
546;DHT22;259;53.304;9.816;2023-07-29T08:15:52;19.60;99.40
546;DHT22;259;53.304;9.816;2023-07-29T08:18:18;19.60;99.40
546;DHT22;259;53.304;9.816;2023-07-29T08:20:54;19.60;99.40
546;DHT22;259;53.304;9.816;2023-07-29T08:23:24;19.60;99.40
546;DHT22;259;53.304;9.816;2023-07-29T08:25:54;19.60;99.40
546;DHT22;259;53.304;9.816;2023-07-29T08:28:22;19.60;99.40
546;DHT22;259;53.304;9.816;2023-07-29T08:30:48;19.60;99.40
546;DHT22;259;53.304;9.816;2023-07-29T08:33:14;19.60;99.40
546;DHT22;259;53.304;9.816;2023-07-29T08:35:40;19.60;99.30
546;DHT22;259;53.304;9.816;2023-07-29T08:38:06;19.60;99.30
546;DHT22;259;53.304;9.816;2023-07-29T08:40:32;19.60;99.30
546;DHT22;259;53.304;9.816;2023-07-29T08:43:04;19.60;99.30
546;DHT22;259;53.304;9.816;2023-07-29T08:45:35;19.60;99.30
546;DHT22;259;53.304;9.816;2023-07-29T08:48:04;19.70;99.40
546;DHT22;259;53.304;9.816;2023-07-29T08:50:33;19.60;99.30
546;DHT22;259;53.304;9.816;2023-07-29T08:53:04;19.60;99.30
546;DHT22;259;53.304;9.816;2023-07-29T08:55:31;19.70;99.30
546;DHT22;259;53.304;9.816;2023-07-29T08:57:59;19.70;99.20
546;DHT22;259;53.304;9.816;2023-07-29T09:00:26;19.70;99.20
546;DHT22;259;53.304;9.816;2023-07-29T09:02:52;19.70;99.30
546;DHT22;259;53.304;9.816;2023-07-29T09:05:21;19.70;99.20
546;DHT22;259;53.304;9.816;2023-07-29T09:07:48;19.70;99.20
546;DHT22;259;53.304;9.816;2023-07-29T09:10:13;19.70;99.20
546;DHT22;259;53.304;9.816;2023-07-29T09:12:40;19.70;99.20
546;DHT22;259;53.304;9.816;2023-07-29T09:15:06;19.70;99.10
546;DHT22;259;53.304;9.816;2023-07-29T09:17:35;19.70;99.10
546;DHT22;259;53.304;9.816;2023-07-29T09:20:00;19.70;99.10
546;DHT22;259;53.304;9.816;2023-07-29T09:22:27;19.70;99.10
546;DHT22;259;53.304;9.816;2023-07-29T09:24:53;19.70;99.00
546;DHT22;259;53.304;9.816;2023-07-29T09:27:26;19.80;99.00
546;DHT22;259;53.304;9.816;2023-07-29T09:29:53;19.80;99.20
546;DHT22;259;53.304;9.816;2023-07-29T09:32:20;19.80;99.20
546;DHT22;259;53.304;9.816;2023-07-29T09:34:47;19.80;99.10
546;DHT22;259;53.304;9.816;2023-07-29T09:37:23;19.80;99.10
546;DHT22;259;53.304;9.816;2023-07-29T09:39:49;19.80;99.10
546;DHT22;259;53.304;9.816;2023-07-29T09:42:22;19.90;99.10
546;DHT22;259;53.304;9.816;2023-07-29T09:44:49;19.90;99.10
546;DHT22;259;53.304;9.816;2023-07-29T09:47:22;19.90;99.20
546;DHT22;259;53.304;9.816;2023-07-29T09:49:53;19.90;99.20
546;DHT22;259;53.304;9.816;2023-07-29T09:52:20;19.90;99.10
546;DHT22;259;53.304;9.816;2023-07-29T09:54:48;19.90;99.20
546;DHT22;259;53.304;9.816;2023-07-29T09:57:15;19.90;99.10
546;DHT22;259;53.304;9.816;2023-07-29T09:59:42;19.90;99.20
546;DHT22;259;53.304;9.816;2023-07-29T10:02:13;20.00;99.20
546;DHT22;259;53.304;9.816;2023-07-29T10:04:42;20.00;99.20
546;DHT22;259;53.304;9.816;2023-07-29T10:07:09;20.00;99.20
546;DHT22;259;53.304;9.816;2023-07-29T10:09:37;20.00;99.20
546;DHT22;259;53.304;9.816;2023-07-29T10:12:06;19.90;99.20
546;DHT22;259;53.304;9.816;2023-07-29T10:14:32;20.00;99.30
546;DHT22;259;53.304;9.816;2023-07-29T10:16:59;20.00;99.30
546;DHT22;259;53.304;9.816;2023-07-29T10:19:26;20.00;99.30
546;DHT22;259;53.304;9.816;2023-07-29T10:21:52;20.00;99.30
546;DHT22;259;53.304;9.816;2023-07-29T10:24:24;20.00;99.30
546;DHT22;259;53.304;9.816;2023-07-29T10:26:58;20.00;99.30
546;DHT22;259;53.304;9.816;2023-07-29T10:29:31;20.00;99.30
546;DHT22;259;53.304;9.816;2023-07-29T10:32:02;20.00;99.30
546;DHT22;259;53.304;9.816;2023-07-29T10:34:31;20.00;99.30
546;DHT22;259;53.304;9.816;2023-07-29T10:36:59;20.00;99.30
546;DHT22;259;53.304;9.816;2023-07-29T10:39:25;20.00;99.30
546;DHT22;259;53.304;9.816;2023-07-29T10:42:01;20.00;99.30
546;DHT22;259;53.304;9.816;2023-07-29T10:47:25;20.00;99.20
546;DHT22;259;53.304;9.816;2023-07-29T10:49:56;20.00;99.20
546;DHT22;259;53.304;9.816;2023-07-29T10:55:01;20.10;99.40
546;DHT22;259;53.304;9.816;2023-07-29T10:57:39;20.10;99.30
546;DHT22;259;53.304;9.816;2023-07-29T11:00:07;20.10;99.50
546;DHT22;259;53.304;9.816;2023-07-29T11:02:37;20.20;99.90
546;DHT22;259;53.304;9.816;2023-07-29T11:05:21;20.20;99.90
546;DHT22;259;53.304;9.816;2023-07-29T11:07:48;20.20;99.90
546;DHT22;259;53.304;9.816;2023-07-29T11:10:14;20.30;99.90
546;DHT22;259;53.304;9.816;2023-07-29T11:15:27;20.30;99.90
546;DHT22;259;53.304;9.816;2023-07-29T11:17:55;20.30;99.90
546;DHT22;259;53.304;9.816;2023-07-29T11:20:26;20.30;99.90
546;DHT22;259;53.304;9.816;2023-07-29T11:22:54;20.30;99.90
546;DHT22;259;53.304;9.816;2023-07-29T11:25:21;20.30;99.90
546;DHT22;259;53.304;9.816;2023-07-29T11:27:48;20.30;99.90
546;DHT22;259;53.304;9.816;2023-07-29T11:30:15;20.30;99.90
546;DHT22;259;53.304;9.816;2023-07-29T11:32:44;20.30;99.90
546;DHT22;259;53.304;9.816;2023-07-29T11:35:15;20.40;99.90
546;DHT22;259;53.304;9.816;2023-07-29T11:37:47;20.40;99.90
546;DHT22;259;53.304;9.816;2023-07-29T11:40:15;20.40;99.90
546;DHT22;259;53.304;9.816;2023-07-29T11:42:43;20.40;99.90
546;DHT22;259;53.304;9.816;2023-07-29T11:45:09;20.40;99.90
546;DHT22;259;53.304;9.816;2023-07-29T11:47:35;20.40;99.90
546;DHT22;259;53.304;9.816;2023-07-29T11:50:06;20.40;99.90
546;DHT22;259;53.304;9.816;2023-07-29T11:52:37;20.40;99.90
546;DHT22;259;53.304;9.816;2023-07-29T11:55:04;20.40;99.90
546;DHT22;259;53.304;9.816;2023-07-29T11:57:35;20.50;99.90
546;DHT22;259;53.304;9.816;2023-07-29T12:00:07;20.50;99.90
546;DHT22;259;53.304;9.816;2023-07-29T12:02:41;20.50;99.90
546;DHT22;259;53.304;9.816;2023-07-29T12:05:09;20.50;99.90
546;DHT22;259;53.304;9.816;2023-07-29T12:07:36;20.50;99.90
546;DHT22;259;53.304;9.816;2023-07-29T12:10:04;20.50;99.90
546;DHT22;259;53.304;9.816;2023-07-29T12:12:30;20.60;99.90
546;DHT22;259;53.304;9.816;2023-07-29T12:14:56;20.60;99.90
546;DHT22;259;53.304;9.816;2023-07-29T12:17:22;20.60;99.90
546;DHT22;259;53.304;9.816;2023-07-29T12:19:47;20.60;99.80
546;DHT22;259;53.304;9.816;2023-07-29T12:22:18;20.60;99.70
546;DHT22;259;53.304;9.816;2023-07-29T12:24:44;20.70;99.80
546;DHT22;259;53.304;9.816;2023-07-29T12:27:12;20.70;99.80
546;DHT22;259;53.304;9.816;2023-07-29T12:29:43;20.70;99.80
546;DHT22;259;53.304;9.816;2023-07-29T12:32:10;20.60;99.90
546;DHT22;259;53.304;9.816;2023-07-29T12:34:37;20.70;99.90
546;DHT22;259;53.304;9.816;2023-07-29T12:37:05;20.70;99.90
546;DHT22;259;53.304;9.816;2023-07-29T12:39:33;20.70;99.90
546;DHT22;259;53.304;9.816;2023-07-29T12:42:01;20.70;99.90
546;DHT22;259;53.304;9.816;2023-07-29T12:44:31;20.70;99.90
546;DHT22;259;53.304;9.816;2023-07-29T12:47:00;20.70;99.90
546;DHT22;259;53.304;9.816;2023-07-29T12:49:26;20.70;99.90
546;DHT22;259;53.304;9.816;2023-07-29T12:51:54;20.70;99.90
546;DHT22;259;53.304;9.816;2023-07-29T12:54:19;20.70;99.90
546;DHT22;259;53.304;9.816;2023-07-29T12:56:45;20.80;99.90
546;DHT22;259;53.304;9.816;2023-07-29T12:59:10;20.80;99.90
546;DHT22;259;53.304;9.816;2023-07-29T13:01:36;20.80;99.90
546;DHT22;259;53.304;9.816;2023-07-29T13:04:02;20.90;99.90
546;DHT22;259;53.304;9.816;2023-07-29T13:06:28;20.90;99.90
546;DHT22;259;53.304;9.816;2023-07-29T13:08:53;20.90;99.90
546;DHT22;259;53.304;9.816;2023-07-29T13:11:19;21.00;99.90
546;DHT22;259;53.304;9.816;2023-07-29T13:13:45;21.00;99.90
546;DHT22;259;53.304;9.816;2023-07-29T13:16:11;21.00;99.90
546;DHT22;259;53.304;9.816;2023-07-29T13:18:38;21.00;99.90
546;DHT22;259;53.304;9.816;2023-07-29T13:21:04;21.10;99.90
546;DHT22;259;53.304;9.816;2023-07-29T13:23:30;21.10;99.90
546;DHT22;259;53.304;9.816;2023-07-29T13:25:56;21.10;99.80
546;DHT22;259;53.304;9.816;2023-07-29T13:28:23;21.10;99.80
546;DHT22;259;53.304;9.816;2023-07-29T13:30:49;21.20;99.80
546;DHT22;259;53.304;9.816;2023-07-29T13:33:15;21.20;99.70
546;DHT22;259;53.304;9.816;2023-07-29T13:35:41;21.20;99.60
546;DHT22;259;53.304;9.816;2023-07-29T13:38:06;21.20;99.60
546;DHT22;259;53.304;9.816;2023-07-29T13:40:32;21.20;99.60
546;DHT22;259;53.304;9.816;2023-07-29T13:42:58;21.30;99.60
546;DHT22;259;53.304;9.816;2023-07-29T13:45:23;21.40;99.70
546;DHT22;259;53.304;9.816;2023-07-29T13:47:49;21.40;99.60
546;DHT22;259;53.304;9.816;2023-07-29T13:50:16;21.40;99.90
546;DHT22;259;53.304;9.816;2023-07-29T13:52:42;21.40;99.50
546;DHT22;259;53.304;9.816;2023-07-29T13:55:08;21.50;99.50
546;DHT22;259;53.304;9.816;2023-07-29T13:57:35;21.60;99.50
546;DHT22;259;53.304;9.816;2023-07-29T14:00:01;21.60;99.50
546;DHT22;259;53.304;9.816;2023-07-29T14:02:27;21.60;99.40
546;DHT22;259;53.304;9.816;2023-07-29T14:04:53;21.70;99.40
546;DHT22;259;53.304;9.816;2023-07-29T14:07:18;21.80;99.40
546;DHT22;259;53.304;9.816;2023-07-29T14:09:45;21.80;99.30
546;DHT22;259;53.304;9.816;2023-07-29T14:12:11;21.90;99.20
546;DHT22;259;53.304;9.816;2023-07-29T14:14:40;21.90;99.20
546;DHT22;259;53.304;9.816;2023-07-29T14:17:05;22.00;99.10
546;DHT22;259;53.304;9.816;2023-07-29T14:19:32;22.10;99.10
546;DHT22;259;53.304;9.816;2023-07-29T14:21:58;22.10;99.00
546;DHT22;259;53.304;9.816;2023-07-29T14:24:24;22.20;99.00
546;DHT22;259;53.304;9.816;2023-07-29T14:26:49;22.20;98.90
546;DHT22;259;53.304;9.816;2023-07-29T14:29:15;22.30;98.90
546;DHT22;259;53.304;9.816;2023-07-29T14:31:41;22.30;98.80
546;DHT22;259;53.304;9.816;2023-07-29T14:34:06;22.30;98.80
546;DHT22;259;53.304;9.816;2023-07-29T14:36:32;22.40;98.70
546;DHT22;259;53.304;9.816;2023-07-29T14:38:58;22.40;98.70
546;DHT22;259;53.304;9.816;2023-07-29T14:41:24;22.50;98.70
546;DHT22;259;53.304;9.816;2023-07-29T14:43:50;22.50;98.60
546;DHT22;259;53.304;9.816;2023-07-29T14:46:15;22.60;98.60
546;DHT22;259;53.304;9.816;2023-07-29T14:48:41;22.60;98.50
546;DHT22;259;53.304;9.816;2023-07-29T14:51:06;22.70;98.40
546;DHT22;259;53.304;9.816;2023-07-29T14:53:32;22.80;98.40
546;DHT22;259;53.304;9.816;2023-07-29T14:55:58;22.80;98.40
546;DHT22;259;53.304;9.816;2023-07-29T14:58:24;22.80;98.30
546;DHT22;259;53.304;9.816;2023-07-29T15:00:51;22.90;98.30
546;DHT22;259;53.304;9.816;2023-07-29T15:03:17;22.90;98.10
546;DHT22;259;53.304;9.816;2023-07-29T15:05:43;22.90;98.10
546;DHT22;259;53.304;9.816;2023-07-29T15:08:09;23.00;98.10
546;DHT22;259;53.304;9.816;2023-07-29T15:10:35;23.00;98.10
546;DHT22;259;53.304;9.816;2023-07-29T15:13:00;23.00;98.00
546;DHT22;259;53.304;9.816;2023-07-29T15:15:27;23.00;98.00
546;DHT22;259;53.304;9.816;2023-07-29T15:17:53;23.10;98.00
546;DHT22;259;53.304;9.816;2023-07-29T15:20:18;23.10;97.90
546;DHT22;259;53.304;9.816;2023-07-29T15:22:44;23.20;97.90
546;DHT22;259;53.304;9.816;2023-07-29T15:25:10;23.20;97.80
546;DHT22;259;53.304;9.816;2023-07-29T15:27:37;23.30;97.80
546;DHT22;259;53.304;9.816;2023-07-29T15:30:03;23.30;97.70
546;DHT22;259;53.304;9.816;2023-07-29T15:32:29;23.30;97.70
546;DHT22;259;53.304;9.816;2023-07-29T15:34:54;23.40;97.70
546;DHT22;259;53.304;9.816;2023-07-29T15:37:20;23.40;97.60
546;DHT22;259;53.304;9.816;2023-07-29T15:39:46;23.40;97.50
546;DHT22;259;53.304;9.816;2023-07-29T15:42:12;23.40;97.50
546;DHT22;259;53.304;9.816;2023-07-29T15:44:37;23.40;97.50
546;DHT22;259;53.304;9.816;2023-07-29T15:47:03;23.40;97.60
546;DHT22;259;53.304;9.816;2023-07-29T15:49:29;23.30;97.60
546;DHT22;259;53.304;9.816;2023-07-29T15:51:55;23.30;97.70
546;DHT22;259;53.304;9.816;2023-07-29T15:54:21;23.20;97.70
546;DHT22;259;53.304;9.816;2023-07-29T15:56:46;23.20;97.80
546;DHT22;259;53.304;9.816;2023-07-29T15:59:12;23.20;97.80
546;DHT22;259;53.304;9.816;2023-07-29T16:01:38;23.10;97.90
546;DHT22;259;53.304;9.816;2023-07-29T16:04:03;23.10;97.90
546;DHT22;259;53.304;9.816;2023-07-29T16:06:29;23.10;98.00
546;DHT22;259;53.304;9.816;2023-07-29T16:08:55;23.00;98.00
546;DHT22;259;53.304;9.816;2023-07-29T16:11:21;23.00;98.10
546;DHT22;259;53.304;9.816;2023-07-29T16:13:47;23.00;98.10
546;DHT22;259;53.304;9.816;2023-07-29T16:16:12;22.90;98.10
546;DHT22;259;53.304;9.816;2023-07-29T16:18:38;22.90;98.20
546;DHT22;259;53.304;9.816;2023-07-29T16:21:04;22.90;98.20
546;DHT22;259;53.304;9.816;2023-07-29T16:23:32;22.90;98.30
546;DHT22;259;53.304;9.816;2023-07-29T16:25:59;22.90;98.30
546;DHT22;259;53.304;9.816;2023-07-29T16:28:26;22.90;98.30
546;DHT22;259;53.304;9.816;2023-07-29T16:30:52;22.90;98.30
546;DHT22;259;53.304;9.816;2023-07-29T16:33:18;22.80;98.20
546;DHT22;259;53.304;9.816;2023-07-29T16:35:43;22.90;98.30
546;DHT22;259;53.304;9.816;2023-07-29T16:38:09;22.80;98.20
546;DHT22;259;53.304;9.816;2023-07-29T16:40:35;22.80;98.20
546;DHT22;259;53.304;9.816;2023-07-29T16:43:01;22.80;98.20
546;DHT22;259;53.304;9.816;2023-07-29T16:45:27;22.80;98.30